Time;durP1;ratioP1;P1;durP2;ratioP2;P2;SDS_P1;SDS_P2;PMS_P1;PMS_P2;Temp;Humidity;BMP_temperature;BMP_pressure;BME280_temperature;BME280_humidity;BME280_pressure;Samples;Min_cycle;Max_cycle;Signal;HPM_P1;HPM_P2
2021/09/15 00:01:27;;;;;;;;;36.00;33.67;26.20;37.90;;;;;;5117404;28;8781;-67
2021/09/15 00:03:54;;;;;;;;;40.00;36.33;26.10;38.20;;;;;;5117488;28;8750;-67
2021/09/15 00:06:19;;;;;;;;;39.33;36.00;26.10;38.50;;;;;;5117467;28;8861;-67
2021/09/15 00:08:45;;;;;;;;;38.33;35.33;26.00;38.50;;;;;;5099216;28;8908;-67
2021/09/15 00:11:12;;;;;;;;;38.33;35.00;26.00;38.60;;;;;;5117115;28;8866;-66
2021/09/15 00:13:39;;;;;;;;;41.33;38.00;26.10;38.60;;;;;;5117049;28;8778;-67
2021/09/15 00:16:05;;;;;;;;;39.00;36.00;26.00;38.70;;;;;;5099006;28;8772;-67
2021/09/15 00:18:31;;;;;;;;;30.67;30.67;26.00;38.60;;;;;;5117022;28;8776;-67
2021/09/15 00:20:56;;;;;;;;;35.67;33.67;26.10;38.60;;;;;;5116953;28;8754;-67
2021/09/15 00:23:22;;;;;;;;;34.00;33.00;26.00;38.70;;;;;;5116878;28;8765;-67
2021/09/15 00:25:48;;;;;;;;;34.67;32.67;26.00;38.70;;;;;;5116711;28;8835;-67
2021/09/15 00:28:14;;;;;;;;;32.00;31.00;25.90;38.80;;;;;;5116524;28;8821;-67
2021/09/15 00:30:40;;;;;;;;;37.33;34.67;25.90;39.00;;;;;;5117003;28;8750;-66
2021/09/15 00:33:06;;;;;;;;;42.00;36.00;25.80;39.20;;;;;;5116705;28;9400;-67
2021/09/15 00:35:32;;;;;;;;;40.67;37.00;25.80;39.20;;;;;;5116654;28;8781;-67
2021/09/15 00:37:58;;;;;;;;;30.00;30.00;25.80;39.30;;;;;;5116644;28;8766;-67
2021/09/15 00:40:23;;;;;;;;;31.33;30.67;25.80;39.00;;;;;;5116500;28;8792;-66
2021/09/15 00:42:49;;;;;;;;;30.67;30.00;25.70;39.00;;;;;;5116471;28;8762;-67
2021/09/15 00:45:15;;;;;;;;;35.00;34.00;25.70;39.00;;;;;;5116705;28;8777;-67
2021/09/15 00:47:41;;;;;;;;;32.33;32.33;25.80;39.00;;;;;;5116538;28;8821;-66
2021/09/15 00:50:07;;;;;;;;;12.00;12.00;25.70;39.00;;;;;;5116620;28;8784;-65
2021/09/15 00:52:33;;;;;;;;;32.00;31.33;25.70;39.10;;;;;;5116591;28;8850;-67
2021/09/15 00:54:59;;;;;;;;;30.67;30.00;25.70;39.10;;;;;;5116217;28;9407;-67
2021/09/15 00:57:25;;;;;;;;;22.33;22.33;25.70;39.20;;;;;;5116535;28;8917;-66
2021/09/15 00:59:50;;;;;;;;;30.67;30.33;25.70;39.10;;;;;;5116151;28;8900;-67
2021/09/15 01:02:16;;;;;;;;;29.00;29.00;25.60;39.00;;;;;;5116104;28;8762;-66
2021/09/15 01:04:44;;;;;;;;;30.00;30.00;25.70;39.10;;;;;;5116310;28;8838;-66
2021/09/15 01:07:11;;;;;;;;;33.67;32.67;25.60;39.20;;;;;;5116261;28;9594;-67
2021/09/15 01:09:37;;;;;;;;;31.67;30.67;25.60;39.30;;;;;;5116250;28;8842;-67
2021/09/15 01:12:04;;;;;;;;;32.00;31.33;25.50;39.30;;;;;;5116200;28;8745;-67
2021/09/15 01:14:30;;;;;;;;;34.33;33.33;25.50;39.30;;;;;;5115930;28;8758;-67
2021/09/15 01:16:59;;;;;;;;;31.00;31.00;25.50;39.10;;;;;;5116093;28;8891;-67
2021/09/15 01:19:26;;;;;;;;;34.67;33.00;25.40;39.10;;;;;;5116050;28;8765;-66
2021/09/15 01:21:53;;;;;;;;;39.00;36.00;25.30;39.30;;;;;;5115856;28;8845;-67
2021/09/15 01:24:21;;;;;;;;;28.00;28.00;25.10;39.70;;;;;;5115755;28;8757;-67
2021/09/15 01:26:47;;;;;;;;;32.00;30.67;25.00;40.00;;;;;;5115685;28;8825;-66
2021/09/15 01:29:21;;;;;;;;;34.33;33.00;25.00;39.80;;;;;;5115777;28;8749;-67
2021/09/15 01:32:01;;;;;;;;;33.33;32.00;25.10;39.90;;;;;;5115860;28;8742;-66
2021/09/15 01:34:28;;;;;;;;;30.67;30.67;25.10;39.70;;;;;;5115610;28;8781;-66
2021/09/15 01:36:55;;;;;;;;;31.00;31.00;25.20;39.80;;;;;;5115502;28;8754;-66
2021/09/15 01:39:21;;;;;;;;;33.67;32.67;25.10;39.90;;;;;;5115419;28;8786;-66
2021/09/15 01:41:47;;;;;;;;;36.00;33.67;25.00;40.00;;;;;;5115418;28;8761;-66
2021/09/15 01:44:13;;;;;;;;;29.00;29.00;25.00;40.20;;;;;;5115372;28;8852;-67
2021/09/15 01:46:38;;;;;;;;;28.67;28.67;24.90;40.10;;;;;;5114926;28;8750;-66
2021/09/15 01:49:04;;;;;;;;;30.00;30.00;24.90;40.30;;;;;;5115141;28;8738;-66
2021/09/15 01:51:30;;;;;;;;;34.33;33.00;24.90;40.30;;;;;;5115252;28;8868;-66
2021/09/15 01:53:55;;;;;;;;;31.00;31.00;25.00;40.30;;;;;;5115234;28;8774;-67
2021/09/15 01:56:21;;;;;;;;;27.00;27.00;24.90;40.30;;;;;;5115177;28;8790;-67
2021/09/15 01:58:48;;;;;;;;;31.00;30.00;24.90;40.40;;;;;;5115118;28;8777;-66
2021/09/15 02:01:13;;;;;;;;;30.67;30.00;24.90;40.30;;;;;;5115120;28;8840;-67
2021/09/15 02:03:39;;;;;;;;;34.00;32.67;24.80;40.50;;;;;;5115055;28;8765;-67
2021/09/15 02:06:05;;;;;;;;;34.33;32.67;24.80;40.60;;;;;;5115053;28;8770;-67
2021/09/15 02:08:31;;;;;;;;;32.33;31.33;24.80;40.60;;;;;;5115034;28;8882;-67
2021/09/15 02:10:56;;;;;;;;;35.33;34.00;24.80;40.70;;;;;;5115041;28;8757;-66
2021/09/15 02:13:22;;;;;;;;;35.67;33.00;24.80;40.60;;;;;;5114943;28;8873;-67
2021/09/15 02:15:48;;;;;;;;;33.00;32.33;24.80;40.50;;;;;;5115232;28;8772;-67
2021/09/15 02:18:14;;;;;;;;;35.00;33.67;24.80;40.50;;;;;;5114879;28;8857;-66
2021/09/15 02:20:39;;;;;;;;;35.67;34.67;24.80;40.60;;;;;;5115113;28;8761;-67
2021/09/15 02:23:06;;;;;;;;;33.00;32.00;24.70;40.70;;;;;;5115115;28;8773;-66
2021/09/15 02:25:31;;;;;;;;;35.33;32.67;24.70;40.90;;;;;;5115095;28;8746;-67
2021/09/15 02:27:57;;;;;;;;;28.33;28.33;24.60;41.10;;;;;;5114688;28;8841;-67
2021/09/15 02:30:23;;;;;;;;;32.00;31.67;24.50;42.30;;;;;;5114759;28;9451;-67
2021/09/15 02:32:49;;;;;;;;;33.00;32.00;24.50;41.30;;;;;;5115058;28;8872;-67
2021/09/15 02:35:15;;;;;;;;;35.00;33.33;24.50;41.20;;;;;;5114815;28;9543;-66
2021/09/15 02:37:40;;;;;;;;;35.33;33.33;24.50;41.20;;;;;;5115007;28;8876;-67
2021/09/15 02:40:07;;;;;;;;;38.67;35.67;24.50;40.90;;;;;;5114903;28;8757;-67
2021/09/15 02:42:33;;;;;;;;;31.33;31.00;24.50;40.80;;;;;;5114644;28;8781;-67
2021/09/15 02:44:59;;;;;;;;;38.67;35.33;24.40;40.80;;;;;;5114871;28;8754;-66
2021/09/15 02:47:24;;;;;;;;;39.00;35.67;24.30;41.20;;;;;;5115598;27;8840;-66
2021/09/15 02:49:50;;;;;;;;;35.33;33.67;24.30;41.40;;;;;;5135074;27;8850;-66
2021/09/15 02:52:16;;;;;;;;;41.00;36.67;24.30;41.40;;;;;;5135179;27;9289;-66
2021/09/15 02:54:42;;;;;;;;;37.00;34.33;24.30;41.50;;;;;;5135435;27;8751;-67
2021/09/15 02:57:08;;;;;;;;;32.67;31.67;24.30;41.60;;;;;;5135394;27;8799;-67
2021/09/15 02:59:33;;;;;;;;;41.33;36.67;24.40;41.60;;;;;;5136655;27;8740;-67
2021/09/15 03:01:59;;;;;;;;;41.33;37.33;24.40;41.30;;;;;;5139316;27;9019;-66
2021/09/15 03:04:25;;;;;;;;;38.00;35.33;24.50;41.20;;;;;;5139080;27;8940;-67
2021/09/15 03:06:51;;;;;;;;;36.00;34.00;24.50;41.20;;;;;;5138930;27;8897;-66
2021/09/15 03:09:17;;;;;;;;;37.67;34.33;24.40;41.30;;;;;;5138984;27;8874;-66
2021/09/15 03:11:43;;;;;;;;;38.33;34.00;24.40;41.40;;;;;;5138840;27;8755;-67
2021/09/15 03:14:09;;;;;;;;;27.33;27.33;24.40;41.30;;;;;;5139114;27;8766;-66
2021/09/15 03:30:25;;;;;;;;;36.00;34.00;24.00;42.10;;;;;;5054916;28;8788;-67
2021/09/15 03:32:51;;;;;;;;;34.33;32.67;23.80;42.50;;;;;;5055067;28;8803;-67
2021/09/15 03:35:16;;;;;;;;;35.00;33.67;23.80;42.70;;;;;;5055148;28;8871;-67
2021/09/15 03:37:42;;;;;;;;;36.33;34.00;23.80;42.70;;;;;;5038218;28;8780;-67
2021/09/15 03:40:09;;;;;;;;;33.67;32.67;23.70;42.70;;;;;;5044301;28;8863;-67
2021/09/15 03:42:35;;;;;;;;;35.00;33.33;23.70;42.90;;;;;;5043903;28;8876;-66
2021/09/15 03:45:01;;;;;;;;;33.67;32.67;23.70;42.60;;;;;;5050059;28;8802;-66
2021/09/15 03:47:26;;;;;;;;;32.00;31.33;23.70;42.60;;;;;;5034906;28;9558;-66
2021/09/15 03:49:52;;;;;;;;;33.33;32.33;23.70;42.60;;;;;;5034769;28;8809;-67
2021/09/15 03:52:18;;;;;;;;;33.33;32.33;23.50;42.80;;;;;;5034796;28;8778;-66
2021/09/15 03:54:44;;;;;;;;;32.67;31.67;23.50;42.90;;;;;;5035168;28;8751;-66
2021/09/15 03:57:10;;;;;;;;;36.67;34.67;23.50;42.90;;;;;;5034627;28;8809;-67
2021/09/15 03:59:36;;;;;;;;;34.00;33.00;23.50;43.90;;;;;;5034671;28;8800;-66
2021/09/15 04:02:02;;;;;;;;;33.33;32.33;23.60;42.90;;;;;;5034704;28;8758;-67
2021/09/15 04:04:28;;;;;;;;;34.67;33.33;23.60;42.80;;;;;;5111394;28;8887;-67
2021/09/15 04:06:55;;;;;;;;;35.33;34.00;23.60;42.70;;;;;;5117261;28;8797;-67
2021/09/15 04:09:21;;;;;;;;;36.00;34.00;23.60;42.90;;;;;;5117531;28;8793;-67
2021/09/15 04:11:47;;;;;;;;;35.67;34.00;23.50;43.00;;;;;;5117108;28;9437;-67
2021/09/15 04:14:13;;;;;;;;;33.33;32.33;23.40;43.00;;;;;;5117155;28;8848;-67
2021/09/15 04:16:38;;;;;;;;;33.67;32.67;23.40;43.30;;;;;;5117135;28;8880;-66
2021/09/15 04:19:05;;;;;;;;;23.00;23.00;23.30;43.40;;;;;;5116880;28;8754;-67
2021/09/15 04:21:30;;;;;;;;;36.00;34.00;23.40;43.20;;;;;;5117210;28;8872;-66
2021/09/15 04:31:59;;;;;;;;;39.00;35.67;23.50;43.40;;;;;;5116915;28;8758;-66
2021/09/15 04:34:25;;;;;;;;;39.33;36.33;23.50;43.30;;;;;;5116732;28;8779;-67
2021/09/15 04:36:51;;;;;;;;;35.67;33.67;23.50;43.20;;;;;;5116653;28;8856;-66
2021/09/15 04:39:16;;;;;;;;;35.33;33.67;23.40;43.10;;;;;;5119916;27;8771;-66
2021/09/15 04:41:42;;;;;;;;;36.00;33.67;23.50;43.10;;;;;;5128346;27;8762;-67
2021/09/15 04:44:08;;;;;;;;;37.00;34.67;23.50;43.10;;;;;;5111407;27;8779;-67
2021/09/15 04:50:36;;;;;;;;;34.67;33.67;23.50;43.10;;;;;;5126408;27;9377;-67
2021/09/15 04:53:02;;;;;;;;;35.67;34.00;23.60;43.20;;;;;;5135052;27;9385;-66
2021/09/15 04:55:29;;;;;;;;;35.00;33.67;23.70;43.20;;;;;;5136710;27;8769;-67
2021/09/15 04:57:55;;;;;;;;;35.33;34.00;23.60;43.00;;;;;;5137167;27;8791;-66
2021/09/15 05:00:21;;;;;;;;;40.67;37.00;23.60;43.00;;;;;;5137090;27;8760;-66
2021/09/15 05:02:47;;;;;;;;;42.67;37.67;23.60;43.00;;;;;;5136968;27;8777;-67
2021/09/15 05:11:57;;;;;;;;;48.00;41.00;23.60;42.80;;;;;;5053261;28;8756;-66
2021/09/15 05:14:23;;;;;;;;;48.50;42.25;23.60;42.80;;;;;;5053065;28;8787;-67
2021/09/15 05:16:49;;;;;;;;;48.33;41.33;23.70;42.70;;;;;;5053049;28;8776;-66
2021/09/15 05:19:14;;;;;;;;;48.00;41.33;23.70;42.60;;;;;;5061752;28;8780;-67
2021/09/15 05:21:40;;;;;;;;;50.25;42.25;23.60;42.80;;;;;;5052513;28;9406;-67
2021/09/15 05:24:06;;;;;;;;;52.00;44.75;23.50;42.90;;;;;;5069665;28;8790;-66
2021/09/15 05:26:32;;;;;;;;;47.33;41.33;23.50;43.10;;;;;;5072806;28;8798;-66
2021/09/15 05:28:57;;;;;;;;;46.67;40.00;23.50;43.20;;;;;;5072747;28;8806;-67
2021/09/15 05:31:23;;;;;;;;;45.33;39.67;23.60;43.10;;;;;;5072664;28;8925;-66
2021/09/15 05:33:49;;;;;;;;;48.67;41.00;23.60;43.20;;;;;;5060526;28;8826;-67
2021/09/15 05:36:15;;;;;;;;;45.33;40.33;23.80;43.10;;;;;;5064592;28;8912;-66
2021/09/15 05:38:41;;;;;;;;;48.33;42.00;23.90;42.80;;;;;;5058542;28;8782;-67
2021/09/15 05:41:06;;;;;;;;;48.67;42.67;24.00;42.70;;;;;;5061614;28;8780;-66
2021/09/15 05:43:34;;;;;;;;;51.50;42.50;24.10;42.90;;;;;;5052528;28;8872;-67
2021/09/15 05:45:59;;;;;;;;;49.00;42.00;24.20;42.70;;;;;;5091476;28;8875;-67
2021/09/15 05:48:25;;;;;;;;;45.00;39.67;24.20;42.50;;;;;;5117451;27;8923;-66
2021/09/15 05:50:51;;;;;;;;;46.33;39.33;24.30;42.40;;;;;;5124392;27;8794;-66
2021/09/15 05:53:17;;;;;;;;;47.00;40.67;24.30;42.60;;;;;;5122861;27;8779;-66
2021/09/15 05:55:42;;;;;;;;;50.00;42.25;24.40;42.40;;;;;;5119745;27;8774;-66
2021/09/15 05:58:08;;;;;;;;;50.67;42.33;24.50;42.50;;;;;;5115464;28;9558;-66
2021/09/15 06:00:34;;;;;;;;;51.33;44.00;24.50;42.40;;;;;;5115284;28;8830;-66
2021/09/15 06:03:00;;;;;;;;;53.00;45.67;24.60;42.40;;;;;;5123470;27;8810;-67
2021/09/15 06:05:26;;;;;;;;;53.00;45.00;24.70;42.40;;;;;;5135763;27;8786;-67
2021/09/15 06:07:51;;;;;;;;;48.33;41.67;24.70;42.10;;;;;;5135271;27;9007;-67
2021/09/15 06:10:17;;;;;;;;;51.67;43.67;24.80;42.30;;;;;;5135419;27;8740;-66
2021/09/15 06:12:43;;;;;;;;;53.00;45.00;24.80;42.40;;;;;;5112863;27;8804;-66
2021/09/15 06:15:09;;;;;;;;;51.67;43.67;24.80;42.10;;;;;;5130596;27;8914;-66
2021/09/15 06:17:35;;;;;;;;;49.33;42.33;24.90;42.20;;;;;;5124667;28;8907;-66
2021/09/15 06:20:01;;;;;;;;;50.67;43.33;24.80;42.10;;;;;;5115140;28;9443;-66
2021/09/15 06:22:26;;;;;;;;;48.33;41.00;24.90;42.20;;;;;;5117461;27;8790;-65
2021/09/15 06:24:55;;;;;;;;;51.33;44.00;24.90;42.20;;;;;;5126215;27;8787;-62
2021/09/15 06:27:22;;;;;;;;;40.00;36.00;25.00;42.20;;;;;;5128481;27;8804;-63
2021/09/15 06:29:48;;;;;;;;;49.00;42.67;25.10;42.20;;;;;;5132352;27;8788;-64
2021/09/15 06:32:14;;;;;;;;;49.00;42.33;25.20;42.20;;;;;;5124527;27;8929;-64
2021/09/15 06:34:39;;;;;;;;;53.50;45.50;25.10;42.20;;;;;;5138828;27;8760;-65
2021/09/15 06:37:05;;;;;;;;;53.50;45.25;25.20;42.00;;;;;;5136825;27;8780;-64
2021/09/15 06:39:31;;;;;;;;;49.00;42.00;25.30;42.00;;;;;;5130895;27;8768;-64
2021/09/15 06:41:57;;;;;;;;;55.25;46.25;25.40;42.20;;;;;;5138893;27;8790;-64
2021/09/15 06:44:23;;;;;;;;;54.50;45.75;25.50;42.30;;;;;;5137649;27;8763;-67
2021/09/15 06:46:49;;;;;;;;;53.25;45.25;25.50;42.10;;;;;;5128429;27;9478;-67
2021/09/15 06:49:14;;;;;;;;;51.00;44.00;25.60;42.00;;;;;;5136089;27;8763;-65
2021/09/15 06:51:40;;;;;;;;;50.33;43.00;25.70;42.00;;;;;;5138821;27;8787;-65
2021/09/15 06:54:06;;;;;;;;;54.67;47.00;25.80;41.50;;;;;;5139398;27;9416;-65
2021/09/15 06:56:32;;;;;;;;;48.67;42.00;25.80;41.50;;;;;;5139070;27;9425;-65
2021/09/15 06:58:57;;;;;;;;;45.67;39.67;25.90;41.50;;;;;;5139075;27;8756;-65
2021/09/15 07:01:24;;;;;;;;;49.00;41.33;25.90;41.20;;;;;;5138021;27;8787;-63
2021/09/15 07:03:51;;;;;;;;;51.00;44.00;25.80;41.40;;;;;;5123840;27;8815;-63
2021/09/15 07:06:17;;;;;;;;;48.67;42.00;25.80;41.40;;;;;;5138987;27;8775;-68
2021/09/15 07:08:43;;;;;;;;;49.00;41.33;26.00;41.40;;;;;;5119953;27;8802;-67
2021/09/15 07:11:09;;;;;;;;;45.00;39.33;26.10;41.00;;;;;;5121962;27;8774;-64
2021/09/15 07:13:34;;;;;;;;;49.00;42.33;26.20;40.80;;;;;;5128111;27;8764;-64
2021/09/15 07:16:01;;;;;;;;;47.67;40.67;26.20;41.10;;;;;;5128872;27;8782;-67
2021/09/15 07:18:28;;;;;;;;;48.33;41.67;26.30;40.70;;;;;;5119813;27;8758;-67
2021/09/15 07:20:54;;;;;;;;;48.00;41.33;26.40;40.70;;;;;;5138771;27;9502;-67
2021/09/15 07:23:20;;;;;;;;;46.33;40.33;26.50;40.40;;;;;;5134577;27;8769;-64
2021/09/15 07:25:46;;;;;;;;;51.00;44.00;26.50;40.10;;;;;;5129346;27;8914;-65
2021/09/15 07:28:11;;;;;;;;;47.00;41.00;26.50;40.30;;;;;;5133344;27;8822;-65
2021/09/15 07:30:37;;;;;;;;;51.33;44.00;26.60;40.10;;;;;;5117905;27;8904;-64
2021/09/15 07:33:03;;;;;;;;;45.33;39.67;26.80;39.80;;;;;;5125115;27;8863;-65
2021/09/15 07:35:29;;;;;;;;;48.33;41.67;26.90;39.60;;;;;;5127527;27;8776;-66
2021/09/15 07:37:54;;;;;;;;;48.67;41.33;26.90;39.60;;;;;;5130526;27;8772;-68
2021/09/15 07:40:20;;;;;;;;;46.67;40.67;27.00;39.60;;;;;;5121296;27;8864;-68
2021/09/15 07:42:47;;;;;;;;;47.33;40.00;27.10;39.50;;;;;;5118165;27;8833;-71
2021/09/15 07:45:14;;;;;;;;;48.67;42.00;27.10;39.20;;;;;;5133490;27;8889;-66
2021/09/15 07:47:40;;;;;;;;;46.00;39.00;27.20;39.00;;;;;;5124894;27;9085;-67
2021/09/15 07:50:08;;;;;;;;;45.33;39.67;27.30;38.80;;;;;;5127073;27;8763;-68
2021/09/15 07:52:34;;;;;;;;;49.67;42.33;27.30;38.70;;;;;;5122852;27;8753;-72
2021/09/15 07:54:59;;;;;;;;;47.67;41.33;27.30;39.10;;;;;;5122789;27;8797;-73
2021/09/15 07:57:25;;;;;;;;;48.33;40.33;27.40;38.80;;;;;;5125883;27;8835;-73
2021/09/15 07:59:51;;;;;;;;;47.00;41.00;27.40;38.80;;;;;;5130927;27;8792;-76
2021/09/15 08:02:17;;;;;;;;;39.67;35.67;27.50;38.70;;;;;;5127893;27;8755;-70
2021/09/15 08:04:42;;;;;;;;;46.33;40.00;27.60;38.50;;;;;;5137138;27;8771;-67
2021/09/15 08:07:08;;;;;;;;;46.33;40.33;27.70;38.50;;;;;;5117237;28;8923;-67
2021/09/15 08:09:34;;;;;;;;;45.67;39.67;27.80;38.30;;;;;;5117266;28;8773;-68
2021/09/15 08:12:01;;;;;;;;;45.33;39.00;27.80;38.40;;;;;;5131390;27;8747;-69
2021/09/15 08:14:27;;;;;;;;;38.00;35.00;27.90;37.70;;;;;;5137446;27;8806;-71
2021/09/15 08:16:53;;;;;;;;;35.67;33.33;28.10;37.50;;;;;;5137487;27;8763;-70
2021/09/15 08:19:19;;;;;;;;;38.00;34.67;28.00;37.10;;;;;;5137263;27;8772;-73
2021/09/15 08:21:45;;;;;;;;;37.00;34.00;28.10;37.20;;;;;;5137659;27;8787;-71
2021/09/15 08:24:12;;;;;;;;;40.67;36.33;28.30;37.20;;;;;;5137318;27;9397;-74
2021/09/15 08:26:39;;;;;;;;;42.33;37.00;28.40;37.40;;;;;;5137581;27;8787;-68
2021/09/15 08:29:05;;;;;;;;;47.00;40.00;28.50;37.00;;;;;;5137211;27;8902;-70
2021/09/15 08:31:31;;;;;;;;;45.33;39.33;28.50;37.40;;;;;;5137342;27;8759;-69
2021/09/15 08:33:57;;;;;;;;;42.00;37.00;28.60;37.40;;;;;;5136986;27;8782;-70
2021/09/15 08:36:23;;;;;;;;;42.00;37.00;28.70;37.40;;;;;;5136363;27;8772;-69
2021/09/15 08:38:49;;;;;;;;;44.00;38.33;28.80;37.50;;;;;;5137334;27;8832;-71
2021/09/15 08:41:15;;;;;;;;;43.00;38.00;28.90;37.40;;;;;;5137496;27;8756;-73
2021/09/15 08:43:41;;;;;;;;;45.33;39.33;28.90;36.70;;;;;;5137320;27;8773;-70
2021/09/15 08:46:11;;;;;;;;;47.00;40.33;29.00;36.70;;;;;;5137024;27;8760;-70
2021/09/15 08:48:41;;;;;;;;;45.67;39.67;29.00;36.80;;;;;;5136842;27;8823;-69
2021/09/15 08:51:16;;;;;;;;;47.00;40.67;29.10;36.20;;;;;;5133282;27;8771;-68
2021/09/15 08:53:43;;;;;;;;;42.67;37.67;29.10;36.20;;;;;;5125489;27;8800;-71
2021/09/15 08:56:09;;;;;;;;;44.67;39.00;29.20;36.40;;;;;;5128840;27;8772;-71
2021/09/15 08:58:35;;;;;;;;;39.67;34.67;29.30;36.10;;;;;;5135938;27;8759;-69
2021/09/15 09:01:17;;;;;;;;;44.33;38.33;29.40;35.80;;;;;;5125029;27;8753;-71
2021/09/15 09:03:44;;;;;;;;;40.00;35.33;29.50;36.10;;;;;;5130502;27;8767;-72
2021/09/15 09:06:12;;;;;;;;;45.67;39.33;29.50;34.90;;;;;;5136566;27;8783;-71
2021/09/15 09:08:40;;;;;;;;;39.33;35.33;29.60;35.70;;;;;;5136326;27;8885;-72
2021/09/15 09:11:06;;;;;;;;;45.33;39.00;29.70;35.70;;;;;;5136679;27;9436;-71
2021/09/15 09:13:34;;;;;;;;;39.00;35.33;29.80;36.00;;;;;;5135076;27;8782;-71
2021/09/15 09:16:00;;;;;;;;;37.00;34.00;29.80;35.40;;;;;;5122279;27;8876;-71
2021/09/15 09:18:26;;;;;;;;;34.67;32.67;29.90;35.20;;;;;;5121832;27;8803;-74
2021/09/15 09:20:51;;;;;;;;;37.33;34.00;29.90;34.80;;;;;;5136387;27;8768;-72
2021/09/15 09:23:19;;;;;;;;;33.00;32.00;30.00;34.60;;;;;;5124088;27;8774;-74
2021/09/15 09:25:57;;;;;;;;;35.00;32.67;30.00;34.30;;;;;;5128759;27;8886;-73
2021/09/15 09:28:25;;;;;;;;;30.33;30.00;30.20;34.50;;;;;;5116557;27;8796;-69
2021/09/15 09:30:54;;;;;;;;;41.00;36.00;30.20;33.60;;;;;;5135944;27;8808;-70
2021/09/15 09:33:21;;;;;;;;;41.67;36.67;30.30;35.90;;;;;;5135803;27;8743;-67
2021/09/15 09:35:49;;;;;;;;;38.00;35.00;30.40;35.40;;;;;;5136074;27;8759;-68
2021/09/15 09:38:15;;;;;;;;;35.67;33.00;30.50;34.60;;;;;;5118128;27;8791;-72
2021/09/15 09:41:15;;;;;;;;;35.67;33.00;30.70;35.10;;;;;;5136250;27;8786;-72
2021/09/15 09:43:45;;;;;;;;;35.33;33.00;30.80;34.00;;;;;;5135909;27;8866;-71
2021/09/15 09:46:16;;;;;;;;;34.67;32.67;30.80;33.50;;;;;;5135992;27;8751;-69
2021/09/15 09:48:45;;;;;;;;;36.67;33.67;30.90;34.50;;;;;;5135684;27;8795;-70
2021/09/15 09:51:29;;;;;;;;;38.00;35.00;31.10;33.80;;;;;;5135983;27;8751;-70
2021/09/15 09:54:18;;;;;;;;;34.00;32.00;31.10;33.40;;;;;;5135796;27;8854;-71
2021/09/15 09:56:46;;;;;;;;;30.00;29.67;31.30;33.60;;;;;;5123561;27;8799;-71
2021/09/15 09:59:13;;;;;;;;;40.67;36.00;31.50;33.10;;;;;;5135661;27;8747;-73
2021/09/15 10:01:48;;;;;;;;;45.33;39.00;31.60;32.40;;;;;;5135941;27;8756;-72
2021/09/15 10:04:15;;;;;;;;;37.33;33.00;31.90;33.70;;;;;;5135394;27;8878;-79
2021/09/15 10:06:43;;;;;;;;;27.33;27.33;32.00;32.40;;;;;;5138758;27;8891;-72
2021/09/15 10:09:09;;;;;;;;;34.67;32.33;32.20;32.10;;;;;;5144991;27;8809;-72
2021/09/15 10:11:37;;;;;;;;;27.33;27.33;32.40;31.20;;;;;;5144444;27;8856;-72
2021/09/15 10:14:05;;;;;;;;;38.00;34.00;32.60;30.00;;;;;;5145195;27;8758;-72
2021/09/15 10:16:35;;;;;;;;;32.00;30.67;32.90;30.70;;;;;;5140809;27;8781;-72
2021/09/15 10:19:05;;;;;;;;;30.00;29.67;33.10;30.10;;;;;;5139427;27;8780;-70
2021/09/15 10:21:34;;;;;;;;;30.67;30.00;33.30;29.00;;;;;;5144041;27;8919;-70
2021/09/15 10:24:02;;;;;;;;;29.33;29.00;33.50;28.60;;;;;;5142721;27;8788;-71
2021/09/15 10:26:27;;;;;;;;;34.67;32.00;33.60;28.60;;;;;;5136974;27;8805;-70
2021/09/15 10:29:27;;;;;;;;;33.00;31.67;33.90;29.00;;;;;;5139625;27;9106;-71
2021/09/15 10:32:04;;;;;;;;;25.33;25.33;34.10;28.20;;;;;;5144313;27;8832;-67
2021/09/15 10:34:39;;;;;;;;;35.00;32.67;34.20;27.50;;;;;;5142762;27;11423;-69
2021/09/15 10:37:06;;;;;;;;;27.00;27.00;34.40;27.60;;;;;;5127803;27;9413;-75
2021/09/15 10:39:32;;;;;;;;;25.00;25.00;34.50;26.60;;;;;;5117943;28;8826;-68
2021/09/15 10:41:58;;;;;;;;;29.67;29.33;34.60;26.40;;;;;;5114312;27;11456;-69
2021/09/15 10:44:24;;;;;;;;;29.00;29.00;34.70;26.60;;;;;;5117292;28;8766;-71
2021/09/15 10:47:16;;;;;;;;;30.00;29.33;34.90;25.90;;;;;;5135431;27;11477;-69
2021/09/15 10:49:44;;;;;;;;;26.67;26.67;35.10;25.70;;;;;;5114473;28;8762;-71
2021/09/15 10:52:10;;;;;;;;;29.67;29.00;35.30;24.60;;;;;;5118018;27;8808;-70
2021/09/15 10:54:51;;;;;;;;;27.00;27.00;35.50;25.30;;;;;;5128367;27;8795;-70
2021/09/15 10:57:27;;;;;;;;;29.00;29.00;35.60;24.30;;;;;;5125293;27;8838;-71
2021/09/15 11:00:03;;;;;;;;;29.67;29.00;35.90;24.90;;;;;;5117572;28;8778;-70
2021/09/15 11:02:41;;;;;;;;;27.33;27.33;36.00;23.90;;;;;;5118400;27;8755;-70
2021/09/15 11:05:25;;;;;;;;;27.33;27.33;36.20;24.40;;;;;;5134968;27;8756;-70
2021/09/15 11:07:51;;;;;;;;;28.00;28.00;36.20;23.50;;;;;;5127403;27;11494;-71
2021/09/15 11:10:35;;;;;;;;;31.33;29.67;36.40;23.70;;;;;;5114567;28;8770;-70
2021/09/15 11:13:14;;;;;;;;;27.00;26.00;36.60;23.80;;;;;;5114231;28;8874;-68
2021/09/15 11:15:43;;;;;;;;;26.00;26.00;36.80;22.80;;;;;;5114120;28;12103;-70
2021/09/15 11:18:15;;;;;;;;;28.33;28.00;36.90;23.00;;;;;;5114358;28;11455;-68
2021/09/15 11:20:41;;;;;;;;;29.00;28.67;37.20;22.80;;;;;;5117525;27;8768;-72
2021/09/15 11:23:09;;;;;;;;;23.00;23.00;37.40;23.00;;;;;;5122515;27;8758;-71
2021/09/15 11:25:35;;;;;;;;;25.67;25.67;37.40;22.30;;;;;;5124639;27;8868;-70
2021/09/15 11:28:10;;;;;;;;;25.00;25.00;37.30;21.80;;;;;;5131274;27;11530;-71
2021/09/15 11:30:40;;;;;;;;;26.33;26.33;37.50;21.90;;;;;;5128097;27;11486;-71
2021/09/15 11:33:06;;;;;;;;;25.33;25.33;37.80;21.10;;;;;;5136891;27;11436;-73
2021/09/15 11:35:34;;;;;;;;;24.33;24.33;37.90;21.40;;;;;;5137293;27;8728;-71
2021/09/15 11:38:00;;;;;;;;;24.00;24.00;37.90;21.00;;;;;;5136563;27;11432;-72
2021/09/15 11:40:29;;;;;;;;;23.67;23.67;38.00;21.20;;;;;;5134476;27;8789;-71
2021/09/15 11:42:55;;;;;;;;;23.00;23.00;38.20;20.90;;;;;;5137052;27;11427;-71
2021/09/15 11:45:24;;;;;;;;;22.67;22.67;38.50;21.20;;;;;;5136863;27;8751;-72
2021/09/15 11:47:53;;;;;;;;;24.00;24.00;38.40;20.80;;;;;;5135961;27;11445;-72
2021/09/15 11:50:20;;;;;;;;;24.33;24.33;38.70;21.00;;;;;;5137235;27;11442;-71
2021/09/15 11:52:51;;;;;;;;;23.33;23.33;38.80;20.70;;;;;;5137064;27;11420;-70
2021/09/15 11:55:18;;;;;;;;;27.00;27.00;38.90;20.20;;;;;;5134266;27;11416;-71
2021/09/15 11:57:48;;;;;;;;;25.50;25.50;39.30;20.40;;;;;;5135996;27;11457;-69
2021/09/15 12:00:15;;;;;;;;;22.00;22.00;39.30;20.00;;;;;;5137611;27;11415;-69
2021/09/15 12:02:45;;;;;;;;;29.33;29.00;39.50;19.40;;;;;;5135683;27;11483;-70
2021/09/15 12:05:12;;;;;;;;;24.50;24.50;39.90;19.80;;;;;;5120100;27;11564;-71
2021/09/15 12:07:39;;;;;;;;;23.00;23.00;40.60;18.90;;;;;;5133348;27;11445;-72
2021/09/15 12:10:07;;;;;;;;;22.00;22.00;43.20;17.00;;;;;;5134630;27;11426;-72
2021/09/15 12:12:36;;;;;;;;;22.00;22.00;47.90;14.90;;;;;;5136291;27;11378;-72
2021/09/15 12:15:03;;;;;;;;;26.00;26.00;49.50;13.20;;;;;;5132995;27;11409;-73
2021/09/15 12:17:30;;;;;;;;;20.50;20.50;51.10;13.10;;;;;;5132122;27;11445;-71
2021/09/15 12:19:56;;;;;;;;;24.00;24.00;52.30;12.10;;;;;;5133677;27;12342;-71
2021/09/15 12:22:32;;;;;;;;;26.33;24.67;54.60;11.20;;;;;;5136060;27;11459;-71
2021/09/15 12:24:59;;;;;;;;;20.67;20.33;57.20;10.30;;;;;;5136102;27;11413;-72
2021/09/15 12:27:25;;;;;;;;;20.00;20.00;56.90;8.90;;;;;;5134537;27;11481;-72
2021/09/15 12:30:01;;;;;;;;;21.00;21.00;57.40;9.40;;;;;;5135795;27;12099;-71
2021/09/15 12:32:32;;;;;;;;;22.00;22.00;58.80;9.00;;;;;;5133719;27;11427;-70
2021/09/15 12:34:58;;;;;;;;;21.00;21.00;60.10;8.80;;;;;;5134212;27;12116;-73
2021/09/15 12:37:23;;;;;;;;;18.33;18.33;60.90;8.20;;;;;;5114042;27;11465;-71
2021/09/15 12:39:56;;;;;;;;;24.00;24.00;61.70;7.90;;;;;;5135783;27;8744;-68
2021/09/15 12:42:40;;;;;;;;;20.67;20.67;62.00;7.80;;;;;;5133089;27;8866;-69
2021/09/15 12:45:11;;;;;;;;;17.00;17.00;61.00;7.00;;;;;;5133508;27;8771;-71
2021/09/15 12:47:46;;;;;;;;;20.67;20.67;60.90;8.20;;;;;;5135448;27;8796;-69
2021/09/15 12:50:13;;;;;;;;;20.00;20.00;60.70;7.60;;;;;;5126575;27;8751;-73
2021/09/15 12:52:39;;;;;;;;;20.00;19.67;60.50;7.40;;;;;;5135660;27;8742;-70
2021/09/15 12:55:06;;;;;;;;;19.00;19.00;60.30;7.20;;;;;;5144865;27;8870;-70
2021/09/15 12:57:33;;;;;;;;;19.00;19.00;60.20;7.50;;;;;;5136517;27;11471;-66
2021/09/15 13:00:21;;;;;;;;;21.00;21.00;60.30;7.40;;;;;;5126318;27;8754;-64
2021/09/15 13:02:58;;;;;;;;;19.67;19.67;59.80;7.10;;;;;;5134943;27;8771;-70
2021/09/15 13:05:25;;;;;;;;;21.00;21.00;59.00;7.20;;;;;;5135394;27;8756;-71
2021/09/15 13:07:57;;;;;;;;;22.00;22.00;58.40;7.40;;;;;;5136562;27;8792;-71
2021/09/15 13:10:24;;;;;;;;;21.00;20.67;59.30;7.50;;;;;;5136761;27;8768;-70